createdAt,value
2023-05-22T00:01:57.352Z,219.67
2023-05-22T00:04:31.028Z,229.06
2023-05-22T00:07:04.885Z,232.84
2023-05-22T00:09:39.447Z,239.24
2023-05-22T00:12:12.747Z,237.20
2023-05-22T00:14:46.002Z,230.98
2023-05-22T00:17:19.300Z,230.85
2023-05-22T00:19:54.000Z,229.55
2023-05-22T00:22:28.401Z,228.78
2023-05-22T00:25:03.300Z,221.92
2023-05-22T00:27:36.559Z,220.72
2023-05-22T00:30:11.244Z,219.13
2023-05-22T00:32:44.529Z,220.15
2023-05-22T00:35:17.803Z,219.88
2023-05-22T00:37:51.051Z,218.31
2023-05-22T00:40:26.208Z,220.09
2023-05-22T00:42:59.440Z,218.27
2023-05-22T00:45:33.625Z,217.24
2023-05-22T00:48:09.687Z,213.86
2023-05-22T00:50:43.133Z,213.32
2023-05-22T00:53:16.904Z,208.32
2023-05-22T00:55:52.714Z,209.82
2023-05-22T00:58:28.065Z,213.94
2023-05-22T01:01:01.924Z,209.02
2023-05-22T01:03:35.311Z,210.15
2023-05-22T01:06:08.776Z,214.41
2023-05-22T01:08:42.459Z,210.96
2023-05-22T01:11:24.410Z,201.09
2023-05-22T01:14:08.460Z,202.68
2023-05-22T01:16:52.902Z,207.94
2023-05-22T01:20:01.443Z,204.19
2023-05-22T01:22:58.632Z,196.80
2023-05-22T01:26:03.895Z,194.12
2023-05-22T01:29:04.310Z,206.59
2023-05-22T01:31:42.616Z,205.58
2023-05-22T01:34:20.037Z,205.66
2023-05-22T01:36:55.875Z,199.40
2023-05-22T01:39:30.210Z,200.09
2023-05-22T01:42:03.578Z,194.59
2023-05-22T01:44:36.745Z,189.61
2023-05-22T01:47:11.326Z,194.84
2023-05-22T01:49:45.002Z,196.88
2023-05-22T01:52:30.016Z,195.06
2023-05-22T01:55:13.552Z,195.33
2023-05-22T01:57:55.062Z,188.51
2023-05-22T02:00:30.288Z,190.10
2023-05-22T02:03:09.893Z,181.11
2023-05-22T02:05:46.738Z,185.62
2023-05-22T02:08:22.184Z,186.13
2023-05-22T02:10:57.843Z,184.47
2023-05-22T02:13:31.678Z,186.68
2023-05-22T02:16:06.326Z,184.60
2023-05-22T02:18:41.968Z,189.83
2023-05-22T02:21:15.514Z,186.81
2023-05-22T02:23:48.764Z,183.51
2023-05-22T02:26:21.952Z,186.20
2023-05-22T02:28:56.167Z,179.35
2023-05-22T02:31:29.480Z,183.93
2023-05-22T02:34:05.511Z,183.49
2023-05-22T02:36:39.820Z,185.68
2023-05-22T02:39:13.109Z,181.60
2023-05-22T02:41:48.831Z,181.57
2023-05-22T02:44:22.092Z,183.62
2023-05-22T02:46:55.383Z,183.32
2023-05-22T02:49:30.057Z,182.75
2023-05-22T02:52:06.001Z,181.01
2023-05-22T02:54:39.192Z,178.31
2023-05-22T02:57:12.396Z,176.68
2023-05-22T02:59:45.727Z,178.86
2023-05-22T03:02:20.036Z,178.09
2023-05-22T03:04:59.158Z,175.21
2023-05-22T03:07:32.509Z,180.80
2023-05-22T03:10:06.976Z,185.04
2023-05-22T03:12:42.401Z,185.51
2023-05-22T03:15:18.369Z,189.40
2023-05-22T03:17:51.658Z,185.43
2023-05-22T03:20:26.503Z,187.90
2023-05-22T03:22:59.679Z,183.64
2023-05-22T03:25:32.876Z,187.49
2023-05-22T03:28:06.358Z,181.59
2023-05-22T03:30:43.628Z,187.74
2023-05-22T03:33:27.692Z,189.49
2023-05-22T03:36:03.628Z,188.98
2023-05-22T03:38:36.815Z,190.02
2023-05-22T03:41:10.024Z,202.57
2023-05-22T03:43:44.997Z,201.49
2023-05-22T03:46:18.997Z,203.98
2023-05-22T03:48:52.445Z,207.89
2023-05-22T03:51:27.018Z,201.52
2023-05-22T03:54:00.280Z,205.69
2023-05-22T03:56:33.432Z,210.11
2023-05-22T03:59:06.562Z,210.75
2023-05-22T04:01:40.103Z,215.47
2023-05-22T04:04:13.588Z,214.82
2023-05-22T04:06:48.287Z,215.30
2023-05-22T04:09:21.530Z,221.01
2023-05-22T04:11:56.153Z,220.71
2023-05-22T04:14:29.544Z,226.47
2023-05-22T04:17:02.768Z,226.26
2023-05-22T04:19:36.365Z,233.51
2023-05-22T04:22:10.913Z,243.39
2023-05-22T04:24:44.121Z,248.05
2023-05-22T04:27:17.501Z,247.33
2023-05-22T04:29:51.443Z,249.36
2023-05-22T04:32:24.636Z,251.82
2023-05-22T04:35:00.569Z,243.79
2023-05-22T04:37:35.837Z,247.53
2023-05-22T04:40:10.181Z,263.76
2023-05-22T04:42:44.686Z,278.68
2023-05-22T04:45:19.425Z,291.57
2023-05-22T04:47:53.608Z,305.26
2023-05-22T04:50:27.203Z,320.16
2023-05-22T04:53:04.294Z,325.63
2023-05-22T04:55:37.628Z,315.85
2023-05-22T04:58:10.820Z,315.02
2023-05-22T05:00:44.557Z,315.02
2023-05-22T05:03:18.285Z,325.40
2023-05-22T05:05:51.556Z,324.70
2023-05-22T05:08:26.219Z,314.92
2023-05-22T05:10:59.883Z,318.74
2023-05-22T05:13:33.100Z,335.12
2023-05-22T05:16:06.849Z,330.80
2023-05-22T05:18:40.068Z,336.32
2023-05-22T05:21:13.187Z,333.61
2023-05-22T05:23:47.805Z,329.44
2023-05-22T05:26:21.750Z,320.18
2023-05-22T05:28:56.724Z,316.80
2023-05-22T05:31:34.149Z,333.69
2023-05-22T05:34:27.668Z,343.54
2023-05-22T05:37:24.595Z,340.72
2023-05-22T05:40:00.308Z,340.11
2023-05-22T05:42:33.593Z,345.51
2023-05-22T05:45:09.859Z,345.31
2023-05-22T05:47:43.508Z,348.67
2023-05-22T05:50:17.274Z,359.98
2023-05-22T05:52:50.565Z,358.72
2023-05-22T05:55:26.938Z,369.44
2023-05-22T05:58:01.181Z,359.21
2023-05-22T06:00:45.451Z,351.85
2023-05-22T06:03:18.983Z,354.97
2023-05-22T06:06:07.387Z,352.90
2023-05-22T06:09:16.406Z,349.14
2023-05-22T06:12:12.801Z,363.20
2023-05-22T06:14:49.384Z,347.76
2023-05-22T06:17:22.855Z,352.46
2023-05-22T06:19:56.564Z,356.54
2023-05-22T06:22:30.547Z,353.74
2023-05-22T06:25:05.403Z,360.37
2023-05-22T06:27:41.642Z,343.18
2023-05-22T06:30:18.451Z,328.92
2023-05-22T06:32:58.961Z,339.44
2023-05-22T06:35:32.837Z,333.09
2023-05-22T06:38:06.027Z,334.59
2023-05-22T06:40:40.960Z,342.25
2023-05-22T06:43:21.497Z,343.54
2023-05-22T06:46:05.603Z,339.60
2023-05-22T06:48:54.360Z,331.50
2023-05-22T06:51:32.720Z,319.56
2023-05-22T06:54:14.100Z,323.86
2023-05-22T06:56:50.850Z,320.43
2023-05-22T06:59:26.071Z,324.92
2023-05-22T07:02:11.328Z,329.13
2023-05-22T07:05:02.968Z,328.24
2023-05-22T07:07:49.582Z,317.28
2023-05-22T07:10:25.091Z,321.35
2023-05-22T07:12:58.870Z,319.70
2023-05-22T07:15:33.480Z,328.26
2023-05-22T07:18:09.752Z,323.54
2023-05-22T07:20:46.624Z,330.05
2023-05-22T07:23:26.196Z,331.38
2023-05-22T07:25:59.724Z,335.66
2023-05-22T07:28:38.910Z,342.45
2023-05-22T07:31:20.176Z,347.36
2023-05-22T07:33:54.756Z,347.48
2023-05-22T07:36:27.967Z,366.05
2023-05-22T07:39:01.298Z,386.24
2023-05-22T07:41:34.632Z,404.41
2023-05-22T07:44:08.294Z,402.38
2023-05-22T07:46:45.615Z,415.90
2023-05-22T07:49:24.325Z,422.90
2023-05-22T07:51:57.780Z,418.59
2023-05-22T07:54:32.257Z,422.80
2023-05-22T07:57:05.647Z,435.28
2023-05-22T07:59:44.086Z,440.22
2023-05-22T08:02:18.797Z,440.20
2023-05-22T08:04:52.015Z,451.58
2023-05-22T08:07:25.267Z,444.84
2023-05-22T08:09:58.455Z,450.57
2023-05-22T08:12:31.630Z,459.55
2023-05-22T08:15:05.461Z,457.74
2023-05-22T08:17:40.326Z,458.39
2023-05-22T08:20:14.122Z,449.77
2023-05-22T08:22:47.388Z,441.74
2023-05-22T08:25:20.646Z,441.53
2023-05-22T08:27:53.854Z,459.51
2023-05-22T08:30:27.075Z,472.34
2023-05-22T08:33:01.707Z,481.95
2023-05-22T08:35:35.029Z,479.57
2023-05-22T08:38:08.216Z,472.50
2023-05-22T08:40:49.575Z,452.56
2023-05-22T08:43:22.945Z,446.10
2023-05-22T08:46:02.241Z,455.77
2023-05-22T08:48:37.328Z,462.33
2023-05-22T08:51:16.293Z,466.50
2023-05-22T08:53:54.849Z,475.91
2023-05-22T08:56:29.718Z,478.69
2023-05-22T08:59:04.800Z,490.46
2023-05-22T09:01:38.725Z,480.41
2023-05-22T09:04:14.507Z,479.36
2023-05-22T09:06:48.761Z,490.99
2023-05-22T09:09:22.028Z,494.84
2023-05-22T09:11:56.361Z,486.21
2023-05-22T09:14:31.288Z,486.75
2023-05-22T09:17:04.507Z,497.48
2023-05-22T09:19:40.290Z,484.87
2023-05-22T09:22:14.486Z,475.75
2023-05-22T09:24:47.998Z,471.75
2023-05-22T09:27:25.108Z,478.89
2023-05-22T09:29:58.916Z,489.61
2023-05-22T09:32:32.631Z,503.51
2023-05-22T09:35:08.162Z,495.24
2023-05-22T09:37:42.468Z,498.78
2023-05-22T09:40:15.659Z,480.41
2023-05-22T09:42:48.884Z,486.08
2023-05-22T09:45:24.163Z,484.88
2023-05-22T09:47:57.960Z,477.45
2023-05-22T09:50:32.852Z,481.48
2023-05-22T09:53:06.840Z,470.38
2023-05-22T09:55:41.148Z,472.34
2023-05-22T09:58:17.279Z,465.88
2023-05-22T10:00:52.089Z,481.44
2023-05-22T10:03:27.586Z,473.47
2023-05-22T10:06:03.980Z,476.93
2023-05-22T10:08:44.430Z,469.99
2023-05-22T10:11:18.661Z,471.11
2023-05-22T10:13:52.940Z,460.51
2023-05-22T10:16:27.710Z,452.09
2023-05-22T10:19:02.419Z,459.43
2023-05-22T10:21:37.952Z,441.96
2023-05-22T10:24:11.464Z,449.54
2023-05-22T10:26:45.820Z,444.53
2023-05-22T10:29:26.622Z,451.49
2023-05-22T10:32:07.755Z,451.56
2023-05-22T10:34:58.646Z,455.48
2023-05-22T10:37:49.903Z,457.07
2023-05-22T10:40:30.458Z,449.46
2023-05-22T10:43:05.107Z,455.51
2023-05-22T10:45:38.301Z,446.12
2023-05-22T10:48:13.252Z,437.97
2023-05-22T10:50:53.648Z,439.63
2023-05-22T10:53:32.381Z,444.14
2023-05-22T10:56:13.592Z,438.11
2023-05-22T10:58:57.726Z,439.14
2023-05-22T11:01:31.009Z,449.00
2023-05-22T11:04:12.938Z,441.13
2023-05-22T11:06:50.850Z,447.69
2023-05-22T11:09:31.714Z,444.30
2023-05-22T11:12:17.506Z,440.91
2023-05-22T11:14:53.058Z,434.10
2023-05-22T11:17:29.167Z,452.13
2023-05-22T11:20:05.982Z,455.75
2023-05-22T11:22:43.173Z,450.28
2023-05-22T11:25:20.188Z,445.89
2023-05-22T11:27:56.169Z,456.24
2023-05-22T11:30:30.920Z,442.72
2023-05-22T11:33:04.681Z,448.75
2023-05-22T11:35:40.917Z,442.12
2023-05-22T11:38:15.880Z,445.82
2023-05-22T11:40:53.252Z,455.39
2023-05-22T11:43:33.146Z,447.95
2023-05-22T11:46:11.582Z,460.92
2023-05-22T11:48:44.792Z,454.15
2023-05-22T11:51:21.331Z,447.14
2023-05-22T11:53:55.173Z,454.57
2023-05-22T11:56:29.773Z,451.63
2023-05-22T11:59:04.022Z,445.38
2023-05-22T12:01:37.266Z,441.87
2023-05-22T12:04:10.507Z,455.94
2023-05-22T12:06:43.928Z,480.60
2023-05-22T12:09:17.111Z,485.01
2023-05-22T12:11:51.921Z,473.60
2023-05-22T12:14:27.664Z,466.18
2023-05-22T12:17:01.330Z,454.80
2023-05-22T12:19:34.541Z,458.17
2023-05-22T12:22:08.210Z,465.28
2023-05-22T12:24:44.101Z,455.06
2023-05-22T12:27:18.655Z,449.78
2023-05-22T12:29:52.913Z,453.89
2023-05-22T12:32:27.097Z,444.63
2023-05-22T12:35:00.711Z,441.51
2023-05-22T12:37:35.664Z,445.51
2023-05-22T12:40:10.578Z,462.04
2023-05-22T12:42:45.850Z,459.93
2023-05-22T12:45:19.219Z,479.92
2023-05-22T12:47:52.409Z,489.96
2023-05-22T12:50:25.941Z,479.11
2023-05-22T12:52:59.225Z,479.78
2023-05-22T12:55:32.437Z,467.11
2023-05-22T12:58:07.222Z,471.67
2023-05-22T13:00:40.708Z,472.95
2023-05-22T13:03:14.250Z,452.35
2023-05-22T13:05:47.349Z,466.20
2023-05-22T13:08:20.500Z,474.77
2023-05-22T13:10:53.677Z,463.59
2023-05-22T13:13:28.177Z,463.96
2023-05-22T13:16:01.318Z,480.97
2023-05-22T13:18:34.487Z,484.77
2023-05-22T13:21:07.669Z,480.80
2023-05-22T13:23:41.066Z,485.56
2023-05-22T13:26:14.197Z,480.30
2023-05-22T13:28:48.752Z,481.73
2023-05-22T13:31:22.025Z,487.42
2023-05-22T13:33:55.269Z,490.40
2023-05-22T13:36:28.492Z,497.00
2023-05-22T13:39:01.738Z,482.38
2023-05-22T13:41:35.101Z,494.40
2023-05-22T13:44:09.685Z,507.69
2023-05-22T13:46:42.919Z,488.56
2023-05-22T13:49:16.208Z,478.67
2023-05-22T13:51:49.421Z,483.27
2023-05-22T13:54:22.551Z,486.39
2023-05-22T13:56:57.653Z,476.21
2023-05-22T13:59:32.333Z,472.39
2023-05-22T14:02:06.054Z,483.47
2023-05-22T14:04:39.250Z,485.71
2023-05-22T14:07:12.819Z,471.49
2023-05-22T14:09:46.148Z,481.11
2023-05-22T14:12:19.324Z,471.67
2023-05-22T14:14:53.960Z,472.76
2023-05-22T14:17:27.153Z,474.01
2023-05-22T14:20:00.542Z,476.82
2023-05-22T14:22:41.418Z,467.62
2023-05-22T14:25:21.695Z,455.43
2023-05-22T14:27:54.938Z,461.51
2023-05-22T14:30:29.542Z,467.73
2023-05-22T14:33:02.761Z,448.42
2023-05-22T14:35:36.222Z,461.94
2023-05-22T14:38:09.395Z,471.27
2023-05-22T14:40:42.611Z,460.08
2023-05-22T14:43:15.804Z,463.32
2023-05-22T14:45:50.513Z,468.04
2023-05-22T14:48:26.611Z,458.98
2023-05-22T14:51:00.066Z,469.07
2023-05-22T14:53:33.284Z,476.14
2023-05-22T14:56:06.765Z,472.43
2023-05-22T14:58:39.953Z,470.89
2023-05-22T15:01:14.536Z,453.03
2023-05-22T15:03:48.484Z,440.42
2023-05-22T15:06:22.085Z,582.12
2023-05-22T15:08:55.251Z,1028.65
2023-05-22T15:11:28.431Z,550.95
2023-05-22T15:14:01.595Z,2373.89
2023-05-22T15:16:36.187Z,623.04
2023-05-22T15:19:10.311Z,529.42
2023-05-22T15:21:43.534Z,562.52
2023-05-22T15:24:16.780Z,692.45
2023-05-22T15:26:49.927Z,483.72
2023-05-22T15:29:23.185Z,472.07
2023-05-22T15:31:57.801Z,463.63
2023-05-22T15:34:31.357Z,471.27
2023-05-22T15:37:04.603Z,469.03
2023-05-22T15:39:37.748Z,455.50
2023-05-22T15:42:11.054Z,473.15
2023-05-22T15:44:44.277Z,449.02
2023-05-22T15:47:18.803Z,439.23
2023-05-22T15:49:51.959Z,446.44
2023-05-22T15:52:25.310Z,461.48
2023-05-22T15:54:58.892Z,451.79
2023-05-22T15:57:32.445Z,431.79
2023-05-22T16:00:06.844Z,431.72
2023-05-22T16:02:41.421Z,421.91
2023-05-22T16:05:14.608Z,423.26
2023-05-22T16:07:47.818Z,442.96
2023-05-22T16:10:21.633Z,460.62
2023-05-22T16:12:54.797Z,421.57
2023-05-22T16:15:27.962Z,413.04
2023-05-22T16:18:02.588Z,459.35
2023-05-22T16:20:36.885Z,398.14
2023-05-22T16:23:10.137Z,390.71
2023-05-22T16:25:43.356Z,367.05
2023-05-22T16:28:17.213Z,362.75
2023-05-22T16:30:50.472Z,356.80
2023-05-22T16:33:25.077Z,355.02
2023-05-22T16:35:58.348Z,338.19
2023-05-22T16:38:31.539Z,341.20
2023-05-22T16:41:04.809Z,325.69
2023-05-22T16:43:38.378Z,401.22
2023-05-22T16:46:11.649Z,326.97
2023-05-22T16:48:46.332Z,334.16
2023-05-22T16:51:19.766Z,323.68
2023-05-22T16:53:52.947Z,319.55
2023-05-22T16:56:26.393Z,323.76
2023-05-22T16:58:59.612Z,319.21
2023-05-22T17:01:32.936Z,302.37
2023-05-22T17:04:07.588Z,319.02
2023-05-22T17:06:41.327Z,328.64
2023-05-22T17:09:16.916Z,332.88
2023-05-22T17:11:50.131Z,340.41
2023-05-22T17:14:23.532Z,350.08
2023-05-22T17:16:57.054Z,356.33
2023-05-22T17:19:32.404Z,367.99
2023-05-22T17:22:06.128Z,383.05
2023-05-22T17:24:39.386Z,377.50
2023-05-22T17:29:45.895Z,379.25
2023-05-22T17:32:19.158Z,383.17
2023-05-22T17:34:53.836Z,375.23
2023-05-22T17:37:27.054Z,377.74
2023-05-22T17:40:00.416Z,376.58
2023-05-22T17:42:33.721Z,374.02
2023-05-22T17:45:08.175Z,365.97
2023-05-22T17:47:41.432Z,367.80
2023-05-22T17:50:16.174Z,368.99
2023-05-22T17:52:49.586Z,367.92
2023-05-22T17:55:22.862Z,361.66
2023-05-22T17:57:56.234Z,360.30
2023-05-22T18:00:29.487Z,347.67
2023-05-22T18:03:05.128Z,346.35
2023-05-22T18:05:40.181Z,336.12
2023-05-22T18:08:13.354Z,326.39
2023-05-22T18:10:46.613Z,319.64
2023-05-22T18:13:20.282Z,323.33
2023-05-22T18:15:54.368Z,323.95
2023-05-22T18:18:27.831Z,316.41
2023-05-22T18:21:03.338Z,312.82
2023-05-22T18:23:36.577Z,312.66
2023-05-22T18:26:10.150Z,318.05
2023-05-22T18:28:43.300Z,306.10
2023-05-22T18:31:16.725Z,298.33
2023-05-22T18:33:49.889Z,296.93
2023-05-22T18:36:24.558Z,286.92
2023-05-22T18:38:57.759Z,292.02
2023-05-22T18:41:31.065Z,289.82
2023-05-22T18:44:04.676Z,285.75
2023-05-22T18:46:37.957Z,277.02
2023-05-22T18:49:11.188Z,271.79
2023-05-22T18:51:45.856Z,267.67
2023-05-22T18:54:19.160Z,270.00
2023-05-22T18:56:52.896Z,265.47
2023-05-22T18:59:28.494Z,260.04
2023-05-22T19:02:01.729Z,258.38
2023-05-22T19:04:34.903Z,263.96
2023-05-22T19:07:09.530Z,252.87
2023-05-22T19:09:44.960Z,254.21
2023-05-22T19:12:18.252Z,258.79
2023-05-22T19:14:52.566Z,254.57
2023-05-22T19:17:26.127Z,261.58
2023-05-22T19:19:59.363Z,256.15
2023-05-22T19:22:34.016Z,256.72
2023-05-22T19:25:07.915Z,257.86
2023-05-22T19:27:41.080Z,260.18
2023-05-22T19:30:16.521Z,255.10
2023-05-22T19:32:50.914Z,255.71
2023-05-22T19:35:24.296Z,256.33
2023-05-22T19:37:58.888Z,256.72
2023-05-22T19:40:32.025Z,249.63
2023-05-22T19:43:05.294Z,258.91
2023-05-22T19:45:41.043Z,257.73
2023-05-22T19:48:14.957Z,249.62
2023-05-22T19:50:48.124Z,254.46
2023-05-22T19:53:22.696Z,254.98
2023-05-22T19:56:03.032Z,253.86
2023-05-22T19:58:36.212Z,252.31
2023-05-22T20:01:09.358Z,256.52
2023-05-22T20:03:42.648Z,256.03
2023-05-22T20:06:16.153Z,264.85
2023-05-22T20:08:50.739Z,255.44
2023-05-22T20:11:23.931Z,256.12
2023-05-22T20:13:57.175Z,258.00
2023-05-22T20:16:30.454Z,259.07
2023-05-22T20:19:04.020Z,257.65
2023-05-22T20:21:37.322Z,250.91
2023-05-22T20:24:18.966Z,262.28
2023-05-22T20:26:52.871Z,262.11
2023-05-22T20:29:26.038Z,264.94
2023-05-22T20:31:59.369Z,280.80
2023-05-22T20:34:32.578Z,279.34
2023-05-22T20:37:08.900Z,269.65
2023-05-22T20:39:44.322Z,272.96
2023-05-22T20:42:18.278Z,276.58
2023-05-22T20:44:53.868Z,285.74
2023-05-22T20:47:27.161Z,290.55
2023-05-22T20:50:00.326Z,292.91
2023-05-22T20:52:33.755Z,303.59
2023-05-22T20:55:09.252Z,316.70
2023-05-22T20:57:42.445Z,317.39
2023-05-22T21:00:15.840Z,318.27
2023-05-22T21:02:49.025Z,318.64
2023-05-22T21:05:22.397Z,325.96
2023-05-22T21:07:55.506Z,325.24
2023-05-22T21:10:30.034Z,320.84
2023-05-22T21:13:03.118Z,324.05
2023-05-22T21:15:36.586Z,332.20
2023-05-22T21:18:09.857Z,329.56
2023-05-22T21:20:43.119Z,332.72
2023-05-22T21:23:16.318Z,331.61
2023-05-22T21:25:50.906Z,333.90
2023-05-22T21:28:24.095Z,343.69
2023-05-22T21:30:57.356Z,340.12
2023-05-22T21:33:30.487Z,342.36
2023-05-22T21:36:03.741Z,343.70
2023-05-22T21:38:36.865Z,349.28
2023-05-22T21:41:11.779Z,352.17
2023-05-22T21:43:45.623Z,359.68
2023-05-22T21:46:18.854Z,359.90
2023-05-22T21:48:53.621Z,375.78
2023-05-22T21:51:26.881Z,384.20
2023-05-22T21:54:00.148Z,386.61
2023-05-22T21:56:34.744Z,390.14
2023-05-22T21:59:08.017Z,386.38
2023-05-22T22:01:41.356Z,385.51
2023-05-22T22:04:14.540Z,401.60
2023-05-22T22:06:47.766Z,406.75
2023-05-22T22:09:20.919Z,407.44
2023-05-22T22:11:55.634Z,428.50
2023-05-22T22:14:28.812Z,424.54
2023-05-22T22:17:02.003Z,429.46
2023-05-22T22:19:36.079Z,420.77
2023-05-22T22:22:09.697Z,423.29
2023-05-22T22:24:42.947Z,432.20
2023-05-22T22:27:17.665Z,427.47
2023-05-22T22:29:50.834Z,428.21
2023-05-22T22:32:24.036Z,431.27
2023-05-22T22:34:57.217Z,427.78
2023-05-22T22:37:31.169Z,436.40
2023-05-22T22:40:05.290Z,437.66
2023-05-22T22:42:39.876Z,435.77
2023-05-22T22:45:14.705Z,451.42
2023-05-22T22:47:48.299Z,457.52
2023-05-22T22:50:21.518Z,449.12
2023-05-22T22:52:54.806Z,456.95
2023-05-22T22:55:28.104Z,454.40
2023-05-22T22:58:03.023Z,442.91
2023-05-22T23:00:38.568Z,456.68
2023-05-22T23:03:11.741Z,466.98
2023-05-22T23:05:45.306Z,474.02
2023-05-22T23:08:18.680Z,470.80
2023-05-22T23:10:51.823Z,464.24
2023-05-22T23:13:26.402Z,475.48
2023-05-22T23:15:59.614Z,481.81
2023-05-22T23:18:32.800Z,484.02
2023-05-22T23:21:06.560Z,481.08
2023-05-22T23:23:39.731Z,468.33
2023-05-22T23:26:12.871Z,468.05
2023-05-22T23:28:47.436Z,455.23
2023-05-22T23:31:26.087Z,440.22
2023-05-22T23:34:00.036Z,431.51
2023-05-22T23:36:33.666Z,425.31
2023-05-22T23:39:06.892Z,427.72
2023-05-22T23:41:40.521Z,420.73
2023-05-22T23:44:15.134Z,422.37
2023-05-22T23:46:48.744Z,422.62
2023-05-22T23:49:22.277Z,407.22
2023-05-22T23:51:55.476Z,404.33
2023-05-22T23:54:28.799Z,375.88
2023-05-22T23:57:01.934Z,378.08
2023-05-22T23:59:36.458Z,333.14
